Gazpromneft East — UBOF4 — position and weather

sailwx.info

Track history (hours):
 
Tides and Currents Weather Stations Pressure Air Temp Water Temp Dewpoint Dewpoint Depression Visibility Wind Speed Wind Dir Waves Ship Positions

Gazpromneft East

Last reported at 2017-Jun-23 00:00 UTC. Time now 2017-Jun-23 00:11 UTC.
Position N 60°20' E 028°42'.

Length 79 m; draft 4.8 m.

Type: Tanker. MMSI: 273335320.

Date/timePositionNaut miles runAvg speedWind from/ knotsBaromVisibWave heightAir tempDewpointWater temp
2017-Jun-23 00:00N 60°20' E 028°42'0 0.0
2017-Jun-22 23:30N 60°20' E 028°42'0 0.0
2017-Jun-22 23:00N 60°20' E 028°42'0 0.0
2017-Jun-22 22:30N 60°20' E 028°42'0 0.0
2017-Jun-22 22:01N 60°20' E 028°42'0 0.0
2017-Jun-22 21:30N 60°20' E 028°42'0 0.0
2017-Jun-22 21:01N 60°20' E 028°42'0 0.0
2017-Jun-22 20:30N 60°20' E 028°42'0 0.0
2017-Jun-22 20:01N 60°20' E 028°42'0 0.0
2017-Jun-22 19:30N 60°20' E 028°42'0 0.0
2017-Jun-22 19:00N 60°20' E 028°42'0 0.0
2017-Jun-22 18:30N 60°20' E 028°42'2 4.6
2017-Jun-22 18:00N 60°18' E 028°45'0 0.1
2017-Jun-22 17:29N 60°18' E 028°45'0 0.1
2017-Jun-22 16:59N 60°18' E 028°45'0 0.1
2017-Jun-22 16:29N 60°18' E 028°45'0 0.1
2017-Jun-22 15:56N 60°18' E 028°45'0 0.0
2017-Jun-22 15:29N 60°18' E 028°45'0 0.1
2017-Jun-22 14:59N 60°18' E 028°45'0 0.0
2017-Jun-22 13:59N 60°18' E 028°45'0 0.1
2017-Jun-22 13:29N 60°18' E 028°45'0 0.0
2017-Jun-22 12:59N 60°18' E 028°45'0 0.0
2017-Jun-22 12:29N 60°18' E 028°45'0 0.0
2017-Jun-22 11:59N 60°18' E 028°45'0 0.0
2017-Jun-22 11:29N 60°18' E 028°45'0 0.0
2017-Jun-22 10:59N 60°18' E 028°45'0 0.0
2017-Jun-22 10:29N 60°18' E 028°45'2 4.2
2017-Jun-22 10:01N 60°16' E 028°47'510.6
2017-Jun-22 09:30N 60°11' E 028°45'612.2
2017-Jun-22 09:01N 60°08' E 028°35'510.9
2017-Jun-22 08:31N 60°04' E 028°26'611.4
2017-Jun-22 08:01N 60°02' E 028°36'510.6
2017-Jun-22 07:31N 59°57' E 028°35'612.0
2017-Jun-22 07:00N 59°52' E 028°28'612.1
2017-Jun-22 06:31N 59°46' E 028°24'4 8.7
2017-Jun-22 06:00N 59°42' E 028°25'0 0.4
2017-Jun-22 05:30N 59°41' E 028°25'0 0.0
2017-Jun-22 05:00N 59°41' E 028°25'0 0.0
2017-Jun-22 04:30N 59°41' E 028°25'0 0.0
2017-Jun-22 04:00N 59°41' E 028°25'0 0.0
2017-Jun-22 03:30N 59°41' E 028°25'0 0.0
2017-Jun-22 03:00N 59°41' E 028°25'0 0.0
2017-Jun-22 02:31N 59°41' E 028°25'0 0.0
2017-Jun-22 02:01N 59°41' E 028°25'0 0.0
2017-Jun-22 01:30N 59°41' E 028°25'0 0.0
2017-Jun-22 01:01N 59°41' E 028°25'0 0.0
2017-Jun-22 00:31N 59°41' E 028°25'0 0.0
2017-Jun-22 00:00N 59°41' E 028°25'0 0.0
2017-Jun-21 23:31N 59°42' E 028°25'0 0.0
2017-Jun-21 23:01N 59°41' E 028°25'0 0.0
2017-Jun-21 22:30N 59°41' E 028°25'0 0.0
2017-Jun-21 22:01N 59°41' E 028°25'0 0.0
2017-Jun-21 21:31N 59°41' E 028°25'0 0.0
2017-Jun-21 21:00N 59°41' E 028°25'0 0.0
2017-Jun-21 20:31N 59°41' E 028°25'0 0.0
2017-Jun-21 20:01N 59°41' E 028°25'1 2.4
2017-Jun-21 19:30N 59°42' E 028°24'1 2.3
2017-Jun-21 18:56N 59°42' E 028°22'0 0.0
2017-Jun-21 18:26N 59°42' E 028°22'0 0.0
2017-Jun-21 17:56N 59°42' E 028°22'0 0.0
2017-Jun-21 17:26N 59°42' E 028°22'0 0.0
2017-Jun-21 16:56N 59°42' E 028°22'0 0.0
2017-Jun-21 16:29N 59°42' E 028°22'0 0.0
2017-Jun-21 15:59N 59°42' E 028°22'1 2.6
2017-Jun-21 15:30N 59°42' E 028°24'2 4.5
2017-Jun-21 15:00N 59°44' E 028°25'5 9.2
2017-Jun-21 14:30N 59°49' E 028°25'10 9.6
2017-Jun-21 13:30N 59°55' E 028°41'510.0
2017-Jun-21 13:00N 59°57' E 028°49'510.2
2017-Jun-21 12:30N 59°60' E 028°58'510.0
2017-Jun-21 12:00N 60°01' E 029°08'5 9.5
2017-Jun-21 11:28N 60°02' E 029°18'6 9.6
2017-Jun-21 10:53N 60°02' E 029°29'410.2
2017-Jun-21 10:29N 60°00' E 029°37'510.2
2017-Jun-21 10:00N 59°59' E 029°46'510.2
2017-Jun-21 09:30N 59°56' E 029°55'510.1
2017-Jun-21 09:00N 59°54' E 030°04'4 7.7
2017-Jun-21 08:30N 59°53' E 030°11'1 2.1
2017-Jun-21 08:00N 59°53' E 030°13'0 0.0
2017-Jun-21 07:31N 59°53' E 030°13'0 0.0
2017-Jun-21 07:00N 59°53' E 030°13'0 0.0
2017-Jun-21 06:30N 59°53' E 030°13'0 0.0
2017-Jun-21 06:00N 59°53' E 030°13'0 0.0
2017-Jun-21 05:30N 59°53' E 030°13'0 0.0
2017-Jun-21 05:00N 59°53' E 030°13'0 0.0
2017-Jun-21 04:30N 59°53' E 030°13'0 0.0
2017-Jun-21 04:00N 59°53' E 030°13'0 0.0
2017-Jun-21 03:30N 59°53' E 030°13'0 0.0
2017-Jun-21 03:00N 59°53' E 030°13'0 0.0
2017-Jun-21 02:30N 59°53' E 030°13'0 0.0
2017-Jun-21 02:00N 59°53' E 030°13'0 0.0
2017-Jun-21 01:30N 59°53' E 030°13'0 0.0
2017-Jun-21 01:00N 59°53' E 030°13'0 0.0
2017-Jun-21 00:30N 59°53' E 030°13'0 0.0
2017-Jun-21 00:00N 59°53' E 030°13'0 0.0
2017-Jun-20 23:30N 59°53' E 030°13'0 0.0
2017-Jun-20 23:00N 59°53' E 030°13'0 0.0
2017-Jun-20 22:30N 59°53' E 030°13'0 0.0
2017-Jun-20 22:00N 59°53' E 030°13'0 0.0
2017-Jun-20 21:30N 59°53' E 030°13'0 0.0
2017-Jun-20 21:00N 59°53' E 030°13'0 0.0
2017-Jun-20 20:30N 59°53' E 030°13'0 0.0
2017-Jun-20 20:00N 59°53' E 030°13'0 0.0
2017-Jun-20 19:30N 59°53' E 030°13'0 0.0
2017-Jun-20 19:00N 59°53' E 030°13'0 0.0
2017-Jun-20 18:30N 59°53' E 030°13'0 0.0
2017-Jun-20 18:00N 59°53' E 030°13'0 0.0
2017-Jun-20 17:30N 59°53' E 030°13'0 0.0
2017-Jun-20 17:00N 59°53' E 030°13'0 0.0
2017-Jun-20 16:30N 59°53' E 030°13'0 0.0
2017-Jun-20 16:00N 59°53' E 030°13'0 0.0
2017-Jun-20 15:30N 59°53' E 030°13'0 0.0
2017-Jun-20 15:00N 59°53' E 030°13'0 0.0
2017-Jun-20 14:30N 59°53' E 030°13'0 0.0
2017-Jun-20 13:30N 59°53' E 030°13'0 0.0
2017-Jun-20 13:00N 59°53' E 030°13'0 0.2
2017-Jun-20 12:30N 59°53' E 030°13'0 0.0
2017-Jun-20 12:00N 59°53' E 030°13'0 0.0
2017-Jun-20 11:30N 59°53' E 030°13'0 0.0
2017-Jun-20 11:00N 59°53' E 030°13'0 0.0
2017-Jun-20 10:30N 59°53' E 030°13'0 0.0
2017-Jun-20 10:00N 59°53' E 030°13'0 0.0
2017-Jun-20 09:30N 59°53' E 030°13'0 0.0
2017-Jun-20 09:00N 59°53' E 030°13'0 0.0
2017-Jun-20 08:30N 59°53' E 030°13'0 0.0
2017-Jun-20 08:00N 59°53' E 030°13'2 0.7
2017-Jun-20 05:31N 59°53' E 030°10'0 7.2
2017-Jun-20 05:29N 59°53' E 030°10'4 9.2
2017-Jun-20 05:00N 59°55' E 030°02'8 6.1
2017-Jun-20 03:45N 59°56' E 029°46'0 0.0
2017-Jun-20 03:30N 59°56' E 029°46'0 0.0
2017-Jun-20 02:52N 59°56' E 029°46'0 0.0
2017-Jun-20 02:30N 59°56' E 029°46'0 0.0
2017-Jun-20 02:00N 59°56' E 029°46'0 0.0
2017-Jun-20 01:30N 59°56' E 029°46'0 0.0
2017-Jun-20 00:33N 59°56' E 029°46'0 0.1
2017-Jun-20 00:27N 59°56' E 029°46'7 1.5
2017-Jun-19 19:37N 59°55' E 030°01'211.7
2017-Jun-19 19:27N 59°54' E 030°04'5 7.0
2017-Jun-19 18:46N 59°53' E 030°13'0 0.2
2017-Jun-19 18:24N 59°53' E 030°13'0 0.1
2017-Jun-19 18:00N 59°53' E 030°13'0 0.1
2017-Jun-19 17:30N 59°53' E 030°13'0 0.0
2017-Jun-19 17:00N 59°53' E 030°13'0 0.0
2017-Jun-19 16:30N 59°53' E 030°13'0 0.0
2017-Jun-19 16:00N 59°53' E 030°13'0 0.0
2017-Jun-19 15:30N 59°53' E 030°13'0 0.0
2017-Jun-19 14:52N 59°53' E 030°13'0 0.0
2017-Jun-19 14:30N 59°53' E 030°13'0 0.0
2017-Jun-19 13:27N 59°53' E 030°13'0 0.0
2017-Jun-19 12:26N 59°53' E 030°13'0 0.0
2017-Jun-19 12:00N 59°53' E 030°13'0 0.0
2017-Jun-19 11:18N 59°53' E 030°13'0 0.0
2017-Jun-19 11:00N 59°53' E 030°13'0 0.0
2017-Jun-19 10:12N 59°53' E 030°13'0 0.0
2017-Jun-19 10:00N 59°53' E 030°13'0 0.0
2017-Jun-19 09:30N 59°53' E 030°13'0 0.0
2017-Jun-19 09:00N 59°53' E 030°13'0 0.0
2017-Jun-19 08:09N 59°53' E 030°13'2 1.2
2017-Jun-19 06:40N 59°53' E 030°10'1 8.1
2017-Jun-19 06:30N 59°54' E 030°07'1311.2
2017-Jun-19 05:22N 59°59' E 029°44'1211.7
2017-Jun-19 04:19N 60°02' E 029°20'411.3
2017-Jun-19 04:00N 60°02' E 029°13'4 8.3
2017-Jun-19 03:30N 60°01' E 029°05'4 7.9
2017-Jun-19 03:00N 59°59' E 028°58'4 7.6
2017-Jun-19 02:30N 59°58' E 028°51'4 7.6
2017-Jun-19 02:00N 59°55' E 028°45'611.8
2017-Jun-19 01:30N 59°53' E 028°34'511.0
2017-Jun-19 01:00N 59°49' E 028°26'510.7
2017-Jun-19 00:30N 59°44' E 028°25'3 5.7
2017-Jun-19 00:00N 59°41' E 028°25'0 0.0
2017-Jun-18 23:30N 59°41' E 028°25'0 0.0
2017-Jun-18 23:00N 59°41' E 028°25'0 0.0
2017-Jun-18 22:15N 59°41' E 028°25'0 0.0
2017-Jun-18 22:00N 59°41' E 028°25'0 0.0
2017-Jun-18 21:21N 59°41' E 028°25'0 0.0
2017-Jun-18 21:00N 59°41' E 028°25'0 0.0
2017-Jun-18 20:30N 59°41' E 028°25'0 0.0
2017-Jun-18 19:51N 59°41' E 028°25'0 0.0
2017-Jun-18 19:06N 59°41' E 028°25'0 0.0
2017-Jun-18 18:51N 59°41' E 028°25'0 0.0
2017-Jun-18 18:30N 59°41' E 028°25'0 0.3
2017-Jun-18 18:00N 59°41' E 028°25'4 8.0
2017-Jun-18 17:30N 59°45' E 028°24'2 3.4
2017-Jun-18 17:01N 59°47' E 028°24'0 0.0
2017-Jun-18 16:26N 59°47' E 028°24'0 0.0
2017-Jun-18 15:53N 59°47' E 028°24'0 0.0
2017-Jun-18 15:26N 59°47' E 028°24'0 0.0
2017-Jun-18 14:59N 59°47' E 028°24'0 0.1
2017-Jun-18 13:59N 59°47' E 028°24'0 0.0
2017-Jun-18 13:29N 59°47' E 028°24'0 0.1
2017-Jun-18 12:59N 59°47' E 028°24'0 0.0
2017-Jun-18 12:29N 59°47' E 028°24'0 0.1
2017-Jun-18 11:59N 59°47' E 028°24'0 0.1
2017-Jun-18 11:17N 59°47' E 028°24'0 0.1
2017-Jun-18 11:01N 59°47' E 028°24'0 0.8
2017-Jun-18 10:31N 59°46' E 028°25'3 5.2
2017-Jun-18 10:01N 59°44' E 028°23'2 4.7
2017-Jun-18 09:30N 59°42' E 028°22'0 0.0
2017-Jun-18 09:00N 59°42' E 028°22'0 0.0
2017-Jun-18 08:30N 59°42' E 028°22'0 0.0
2017-Jun-18 08:00N 59°42' E 028°22'0 0.0
2017-Jun-18 07:27N 59°42' E 028°22'0 0.0
2017-Jun-18 07:00N 59°42' E 028°22'0 0.0
2017-Jun-18 06:30N 59°42' E 028°22'0 0.0
2017-Jun-18 06:00N 59°42' E 028°22'0 0.0
2017-Jun-18 05:30N 59°42' E 028°22'0 0.0
2017-Jun-18 05:00N 59°42' E 028°22'0 0.0
2017-Jun-18 04:30N 59°42' E 028°22'0 0.0
2017-Jun-18 04:00N 59°42' E 028°22'0 0.0
2017-Jun-18 03:27N 59°42' E 028°22'0 0.0
2017-Jun-18 02:54N 59°42' E 028°22'0 0.0
2017-Jun-18 02:30N 59°42' E 028°22'0 0.0
2017-Jun-18 02:00N 59°42' E 028°22'0 0.0
2017-Jun-18 01:30N 59°42' E 028°22'0 0.0
2017-Jun-18 01:00N 59°42' E 028°22'0 0.0
2017-Jun-18 00:30N 59°42' E 028°22'0 0.0
2017-Jun-18 00:00N 59°42' E 028°22'0 0.0
2017-Jun-17 23:30N 59°42' E 028°22'0 0.0
2017-Jun-17 23:00N 59°42' E 028°22'0 0.0
2017-Jun-17 22:30N 59°42' E 028°22'0 0.0
2017-Jun-17 22:00N 59°42' E 028°22'0 0.0
2017-Jun-17 21:30N 59°42' E 028°22'0 0.1
2017-Jun-17 21:00N 59°42' E 028°22'0 0.0
2017-Jun-17 20:30N 59°42' E 028°22'0 0.0
2017-Jun-17 20:00N 59°42' E 028°22'0 0.0
2017-Jun-17 19:30N 59°42' E 028°22'0 0.1
2017-Jun-17 19:00N 59°42' E 028°21'0 0.1
2017-Jun-17 18:30N 59°42' E 028°21'0 0.0
2017-Jun-17 18:00N 59°42' E 028°21'0 0.0
2017-Jun-17 17:30N 59°42' E 028°21'0 0.0
2017-Jun-17 17:00N 59°42' E 028°21'0 0.0
2017-Jun-17 16:30N 59°42' E 028°22'0 0.0
2017-Jun-17 16:00N 59°42' E 028°22'0 0.1
2017-Jun-17 15:30N 59°42' E 028°22'0 0.0
2017-Jun-17 14:57N 59°42' E 028°22'0 0.0
2017-Jun-17 14:30N 59°42' E 028°22'0 0.0
2017-Jun-17 13:27N 59°42' E 028°22'0 0.0
2017-Jun-17 12:54N 59°42' E 028°22'0 0.0
2017-Jun-17 12:30N 59°42' E 028°22'0 0.0
2017-Jun-17 11:57N 59°42' E 028°22'0 0.0
2017-Jun-17 11:27N 59°42' E 028°22'0 0.0
2017-Jun-17 11:00N 59°42' E 028°21'0 0.0
2017-Jun-17 10:30N 59°42' E 028°21'0 0.0
2017-Jun-17 10:00N 59°42' E 028°22'0 0.0
2017-Jun-17 09:27N 59°42' E 028°22'0 0.0
2017-Jun-17 09:00N 59°42' E 028°22'0 0.0
2017-Jun-17 08:30N 59°42' E 028°22'0 0.0
2017-Jun-17 07:57N 59°42' E 028°21'0 0.0
2017-Jun-17 07:30N 59°42' E 028°21'0 0.0
2017-Jun-17 07:00N 59°42' E 028°21'0 0.0
2017-Jun-17 06:30N 59°42' E 028°21'0 0.0
2017-Jun-17 06:00N 59°42' E 028°22'0 0.0
2017-Jun-17 05:30N 59°42' E 028°22'0 0.0
2017-Jun-17 05:00N 59°42' E 028°22'0 0.0
2017-Jun-17 04:30N 59°42' E 028°22'0 0.0
2017-Jun-17 04:00N 59°42' E 028°22'0 0.0
2017-Jun-17 03:30N 59°42' E 028°21'0 0.0
2017-Jun-17 03:00N 59°42' E 028°21'0 0.0
2017-Jun-17 02:30N 59°42' E 028°21'0 0.0
2017-Jun-17 02:00N 59°42' E 028°21'0 0.0
2017-Jun-17 01:30N 59°42' E 028°21'0 0.0
2017-Jun-17 01:00N 59°42' E 028°21'0 0.1
2017-Jun-17 00:24N 59°42' E 028°22'0 0.0
2017-Jun-17 00:00N 59°42' E 028°22'0 0.0
2017-Jun-16 23:30N 59°42' E 028°21'0 0.0
2017-Jun-16 22:51N 59°42' E 028°21'0 0.0
2017-Jun-16 22:21N 59°42' E 028°21'0 0.0
2017-Jun-16 21:48N 59°42' E 028°21'0 0.0
2017-Jun-16 21:24N 59°42' E 028°21'0 0.0
2017-Jun-16 20:54N 59°42' E 028°21'0 0.0
2017-Jun-16 20:24N 59°42' E 028°21'0 0.0
2017-Jun-16 20:00N 59°42' E 028°21'0 0.0
2017-Jun-16 19:30N 59°42' E 028°21'0 0.0
2017-Jun-16 18:51N 59°42' E 028°21'0 0.0
2017-Jun-16 18:27N 59°42' E 028°21'0 0.0
2017-Jun-16 18:00N 59°42' E 028°21'0 0.0
2017-Jun-16 17:30N 59°42' E 028°21'0 0.0
2017-Jun-16 17:00N 59°42' E 028°21'0 0.0
2017-Jun-16 16:30N 59°42' E 028°21'0 0.0
2017-Jun-16 16:00N 59°42' E 028°21'0 0.0
2017-Jun-16 15:30N 59°42' E 028°21'0 0.0
2017-Jun-16 15:00N 59°42' E 028°21'0 0.0
2017-Jun-16 14:30N 59°42' E 028°21'0 0.0
2017-Jun-16 13:30N 59°42' E 028°21'0 0.0
2017-Jun-16 13:00N 59°42' E 028°21'0 0.0
2017-Jun-16 12:30N 59°42' E 028°21'0 0.0
2017-Jun-16 12:00N 59°42' E 028°21'0 0.0
2017-Jun-16 11:31N 59°42' E 028°21'1 2.8
2017-Jun-16 11:00N 59°43' E 028°23'510.1
2017-Jun-16 10:31N 59°48' E 028°25'611.5
2017-Jun-16 10:01N 59°53' E 028°30'4 6.9
2017-Jun-16 09:29N 59°55' E 028°36'0 0.0
2017-Jun-16 08:56N 59°55' E 028°36'0 0.0
2017-Jun-16 08:29N 59°55' E 028°36'0 0.0
2017-Jun-16 07:59N 59°55' E 028°36'0 0.0
2017-Jun-16 07:29N 59°55' E 028°36'0 0.0
2017-Jun-16 06:59N 59°55' E 028°36'0 0.1
2017-Jun-16 06:29N 59°55' E 028°36'0 0.0
2017-Jun-16 05:59N 59°55' E 028°36'0 0.0
2017-Jun-16 05:29N 59°55' E 028°36'0 0.0
2017-Jun-16 04:59N 59°55' E 028°36'0 0.0
2017-Jun-16 04:29N 59°55' E 028°36'0 0.0
2017-Jun-16 03:59N 59°55' E 028°36'0 0.0
2017-Jun-16 03:29N 59°55' E 028°36'0 0.0
2017-Jun-16 02:59N 59°55' E 028°36'0 0.1
2017-Jun-16 02:29N 59°55' E 028°36'0 0.0
2017-Jun-16 01:59N 59°55' E 028°36'0 0.0
2017-Jun-16 01:29N 59°55' E 028°36'0 0.0
2017-Jun-16 00:59N 59°55' E 028°36'0 0.0
2017-Jun-16 00:29N 59°55' E 028°36'0 0.0
2017-Jun-15 23:59N 59°55' E 028°36'0 0.0
2017-Jun-15 23:29N 59°55' E 028°36'0 0.0
2017-Jun-15 22:59N 59°55' E 028°36'0 0.1
2017-Jun-15 22:29N 59°55' E 028°36'0 0.0
2017-Jun-15 21:59N 59°55' E 028°36'3 6.3
2017-Jun-15 21:31N 59°55' E 028°42'611.4
2017-Jun-15 21:01N 59°58' E 028°52'611.7
2017-Jun-15 20:31N 60°00' E 029°03'611.6
2017-Jun-15 20:00N 60°02' E 029°14'611.4
2017-Jun-15 19:30N 60°02' E 029°25'510.7
2017-Jun-15 19:00N 60°01' E 029°36'511.0
2017-Jun-15 18:30N 59°59' E 029°46'3 5.6
2017-Jun-15 17:59N 59°56' E 029°46'0 0.0
2017-Jun-15 17:30N 59°56' E 029°46'0 0.0
2017-Jun-15 17:00N 59°56' E 029°46'0 0.0
2017-Jun-15 16:30N 59°56' E 029°46'0 0.0
2017-Jun-15 16:01N 59°56' E 029°46'0 0.0
2017-Jun-15 15:30N 59°56' E 029°46'0 0.0
2017-Jun-15 15:00N 59°56' E 029°46'0 0.0
2017-Jun-15 14:30N 59°56' E 029°46'0 0.0
2017-Jun-15 13:30N 59°56' E 029°46'0 0.0
2017-Jun-15 13:00N 59°56' E 029°46'0 0.0
2017-Jun-15 12:27N 59°56' E 029°46'0 0.0
2017-Jun-15 12:00N 59°56' E 029°46'0 0.1
2017-Jun-15 09:40N 59°56' E 029°47'1 8.5
2017-Jun-15 09:31N 59°57' E 029°47'4 8.2
2017-Jun-15 09:00N 59°56' E 029°55'611.2
2017-Jun-15 08:30N 59°54' E 030°06'3 6.7
2017-Jun-15 08:01N 59°53' E 030°12'1 1.7
2017-Jun-15 07:31N 59°53' E 030°13'0 0.0
2017-Jun-15 07:01N 59°53' E 030°13'0 0.0
2017-Jun-15 06:30N 59°53' E 030°13'0 0.0
2017-Jun-15 06:00N 59°53' E 030°13'0 0.0
2017-Jun-15 05:31N 59°53' E 030°13'0 0.0
2017-Jun-15 05:01N 59°53' E 030°13'0 0.0
2017-Jun-15 04:31N 59°53' E 030°13'0 0.2
2017-Jun-15 04:00N 59°53' E 030°14'0 0.0
2017-Jun-15 03:30N 59°53' E 030°14'0 0.0
2017-Jun-15 03:01N 59°53' E 030°14'0 0.0
2017-Jun-15 02:31N 59°53' E 030°14'0 0.0
2017-Jun-15 02:00N 59°53' E 030°14'0 0.0
2017-Jun-15 01:31N 59°53' E 030°14'0 0.0
2017-Jun-15 01:01N 59°53' E 030°14'0 0.0
2017-Jun-15 00:31N 59°53' E 030°14'0 0.0
2017-Jun-15 00:00N 59°53' E 030°14'0 0.0
2017-Jun-14 23:31N 59°53' E 030°14'0 0.0
2017-Jun-14 23:00N 59°53' E 030°14'0 0.9
2017-Jun-14 22:31N 59°53' E 030°13'1 1.7
2017-Jun-14 22:01N 59°53' E 030°11'0 0.2
2017-Jun-14 21:30N 59°53' E 030°11'0 0.0
2017-Jun-14 21:01N 59°53' E 030°11'0 0.0
2017-Jun-14 20:31N 59°53' E 030°11'0 0.0
2017-Jun-14 20:00N 59°53' E 030°11'0 0.0
2017-Jun-14 19:31N 59°53' E 030°11'0 0.0
2017-Jun-14 19:01N 59°53' E 030°11'0 0.0
2017-Jun-14 18:30N 59°53' E 030°11'0 0.0
2017-Jun-14 18:00N 59°53' E 030°11'0 0.0
2017-Jun-14 17:30N 59°53' E 030°11'0 0.0
2017-Jun-14 17:01N 59°53' E 030°11'0 0.0
2017-Jun-14 16:31N 59°53' E 030°11'0 0.0
2017-Jun-14 16:01N 59°53' E 030°11'0 0.0
2017-Jun-14 15:30N 59°53' E 030°11'0 0.0
2017-Jun-14 15:01N 59°53' E 030°11'0 0.0
2017-Jun-14 14:01N 59°53' E 030°11'0 0.0
2017-Jun-14 13:30N 59°53' E 030°11'0 0.0
2017-Jun-14 13:00N 59°53' E 030°11'0 0.0
2017-Jun-14 12:30N 59°53' E 030°11'1 1.8
2017-Jun-14 12:00N 59°53' E 030°13'0 1.0
2017-Jun-14 11:31N 59°53' E 030°13'0 0.0
2017-Jun-14 11:00N 59°53' E 030°13'0 0.0
2017-Jun-14 10:30N 59°53' E 030°13'0 0.0
2017-Jun-14 10:00N 59°53' E 030°13'0 0.0
2017-Jun-14 09:30N 59°53' E 030°13'0 0.0
2017-Jun-14 09:01N 59°53' E 030°13'0 0.0
2017-Jun-14 08:31N 59°53' E 030°13'0 0.0
2017-Jun-14 08:00N 59°53' E 030°13'0 0.0
2017-Jun-14 07:30N 59°53' E 030°13'0 0.0
2017-Jun-14 07:01N 59°53' E 030°13'0 0.1
2017-Jun-14 06:31N 59°53' E 030°13'3 5.3
2017-Jun-14 06:01N 59°54' E 030°08'5 8.9
2017-Jun-14 05:30N 59°55' E 029°60'511.0
2017-Jun-14 05:01N 59°57' E 029°50'2 4.9
2017-Jun-14 04:31N 59°56' E 029°46'0 0.0
2017-Jun-13 05:08N 59°56' E 029°46'0 0.0
2017-Jun-13 05:00N 59°56' E 029°46'0 0.0
2017-Jun-13 04:30N 59°56' E 029°46'0 0.6
2017-Jun-13 03:58N 59°56' E 029°47'3 7.6
2017-Jun-13 03:30N 59°59' E 029°44'811.2
2017-Jun-13 02:50N 60°01' E 029°30'3 8.1
2017-Jun-13 02:24N 60°01' E 029°23'  
Track history (hours):
 
Tides and Currents Weather Stations Pressure Air Temp Water Temp Dewpoint Dewpoint Depression Visibility Wind Speed Wind Dir Waves Ship Positions

Gazpromneft East

Last reported at 2017-Jun-23 00:00 UTC. Time now 2017-Jun-23 00:11 UTC.
Position N 60°20' E 028°42'.

Length 79 m; draft 4.8 m.

Type: Tanker. MMSI: 273335320.

Date/timePositionNaut miles runAvg speedWind from/ knotsBaromVisibWave heightAir tempDewpointWater temp
2017-Jun-23 00:00N 60°20' E 028°42'0 0.0
2017-Jun-22 23:30N 60°20' E 028°42'0 0.0
2017-Jun-22 23:00N 60°20' E 028°42'0 0.0
2017-Jun-22 22:30N 60°20' E 028°42'0 0.0
2017-Jun-22 22:01N 60°20' E 028°42'0 0.0
2017-Jun-22 21:30N 60°20' E 028°42'0 0.0
2017-Jun-22 21:01N 60°20' E 028°42'0 0.0
2017-Jun-22 20:30N 60°20' E 028°42'0 0.0
2017-Jun-22 20:01N 60°20' E 028°42'0 0.0
2017-Jun-22 19:30N 60°20' E 028°42'0 0.0
2017-Jun-22 19:00N 60°20' E 028°42'0 0.0
2017-Jun-22 18:30N 60°20' E 028°42'2 4.6
2017-Jun-22 18:00N 60°18' E 028°45'0 0.1
2017-Jun-22 17:29N 60°18' E 028°45'0 0.1
2017-Jun-22 16:59N 60°18' E 028°45'0 0.1
2017-Jun-22 16:29N 60°18' E 028°45'0 0.1
2017-Jun-22 15:56N 60°18' E 028°45'0 0.0
2017-Jun-22 15:29N 60°18' E 028°45'0 0.1
2017-Jun-22 14:59N 60°18' E 028°45'0 0.0
2017-Jun-22 13:59N 60°18' E 028°45'0 0.1
2017-Jun-22 13:29N 60°18' E 028°45'0 0.0
2017-Jun-22 12:59N 60°18' E 028°45'0 0.0
2017-Jun-22 12:29N 60°18' E 028°45'0 0.0
2017-Jun-22 11:59N 60°18' E 028°45'0 0.0
2017-Jun-22 11:29N 60°18' E 028°45'0 0.0
2017-Jun-22 10:59N 60°18' E 028°45'0 0.0
2017-Jun-22 10:29N 60°18' E 028°45'2 4.2
2017-Jun-22 10:01N 60°16' E 028°47'510.6
2017-Jun-22 09:30N 60°11' E 028°45'612.2
2017-Jun-22 09:01N 60°08' E 028°35'510.9
2017-Jun-22 08:31N 60°04' E 028°26'611.4
2017-Jun-22 08:01N 60°02' E 028°36'510.6
2017-Jun-22 07:31N 59°57' E 028°35'612.0
2017-Jun-22 07:00N 59°52' E 028°28'612.1
2017-Jun-22 06:31N 59°46' E 028°24'4 8.7
2017-Jun-22 06:00N 59°42' E 028°25'0 0.4
2017-Jun-22 05:30N 59°41' E 028°25'0 0.0
2017-Jun-22 05:00N 59°41' E 028°25'0 0.0
2017-Jun-22 04:30N 59°41' E 028°25'0 0.0
2017-Jun-22 04:00N 59°41' E 028°25'0 0.0
2017-Jun-22 03:30N 59°41' E 028°25'0 0.0
2017-Jun-22 03:00N 59°41' E 028°25'0 0.0
2017-Jun-22 02:31N 59°41' E 028°25'0 0.0
2017-Jun-22 02:01N 59°41' E 028°25'0 0.0
2017-Jun-22 01:30N 59°41' E 028°25'0 0.0
2017-Jun-22 01:01N 59°41' E 028°25'0 0.0
2017-Jun-22 00:31N 59°41' E 028°25'0 0.0
2017-Jun-22 00:00N 59°41' E 028°25'0 0.0
2017-Jun-21 23:31N 59°42' E 028°25'0 0.0
2017-Jun-21 23:01N 59°41' E 028°25'0 0.0
2017-Jun-21 22:30N 59°41' E 028°25'0 0.0
2017-Jun-21 22:01N 59°41' E 028°25'0 0.0
2017-Jun-21 21:31N 59°41' E 028°25'0 0.0
2017-Jun-21 21:00N 59°41' E 028°25'0 0.0
2017-Jun-21 20:31N 59°41' E 028°25'0 0.0
2017-Jun-21 20:01N 59°41' E 028°25'1 2.4
2017-Jun-21 19:30N 59°42' E 028°24'1 2.3
2017-Jun-21 18:56N 59°42' E 028°22'0 0.0
2017-Jun-21 18:26N 59°42' E 028°22'0 0.0
2017-Jun-21 17:56N 59°42' E 028°22'0 0.0
2017-Jun-21 17:26N 59°42' E 028°22'0 0.0
2017-Jun-21 16:56N 59°42' E 028°22'0 0.0
2017-Jun-21 16:29N 59°42' E 028°22'0 0.0
2017-Jun-21 15:59N 59°42' E 028°22'1 2.6
2017-Jun-21 15:30N 59°42' E 028°24'2 4.5
2017-Jun-21 15:00N 59°44' E 028°25'5 9.2
2017-Jun-21 14:30N 59°49' E 028°25'10 9.6
2017-Jun-21 13:30N 59°55' E 028°41'510.0
2017-Jun-21 13:00N 59°57' E 028°49'510.2
2017-Jun-21 12:30N 59°60' E 028°58'510.0
2017-Jun-21 12:00N 60°01' E 029°08'5 9.5
2017-Jun-21 11:28N 60°02' E 029°18'6 9.6
2017-Jun-21 10:53N 60°02' E 029°29'410.2
2017-Jun-21 10:29N 60°00' E 029°37'510.2
2017-Jun-21 10:00N 59°59' E 029°46'510.2
2017-Jun-21 09:30N 59°56' E 029°55'510.1
2017-Jun-21 09:00N 59°54' E 030°04'4 7.7
2017-Jun-21 08:30N 59°53' E 030°11'1 2.1
2017-Jun-21 08:00N 59°53' E 030°13'0 0.0
2017-Jun-21 07:31N 59°53' E 030°13'0 0.0
2017-Jun-21 07:00N 59°53' E 030°13'0 0.0
2017-Jun-21 06:30N 59°53' E 030°13'0 0.0
2017-Jun-21 06:00N 59°53' E 030°13'0 0.0
2017-Jun-21 05:30N 59°53' E 030°13'0 0.0
2017-Jun-21 05:00N 59°53' E 030°13'0 0.0
2017-Jun-21 04:30N 59°53' E 030°13'0 0.0
2017-Jun-21 04:00N 59°53' E 030°13'0 0.0
2017-Jun-21 03:30N 59°53' E 030°13'0 0.0
2017-Jun-21 03:00N 59°53' E 030°13'0 0.0
2017-Jun-21 02:30N 59°53' E 030°13'0 0.0
2017-Jun-21 02:00N 59°53' E 030°13'0 0.0
2017-Jun-21 01:30N 59°53' E 030°13'0 0.0
2017-Jun-21 01:00N 59°53' E 030°13'0 0.0
2017-Jun-21 00:30N 59°53' E 030°13'0 0.0
2017-Jun-21 00:00N 59°53' E 030°13'0 0.0
2017-Jun-20 23:30N 59°53' E 030°13'0 0.0
2017-Jun-20 23:00N 59°53' E 030°13'0 0.0
2017-Jun-20 22:30N 59°53' E 030°13'0 0.0
2017-Jun-20 22:00N 59°53' E 030°13'0 0.0
2017-Jun-20 21:30N 59°53' E 030°13'0 0.0
2017-Jun-20 21:00N 59°53' E 030°13'0 0.0
2017-Jun-20 20:30N 59°53' E 030°13'0 0.0
2017-Jun-20 20:00N 59°53' E 030°13'0 0.0
2017-Jun-20 19:30N 59°53' E 030°13'0 0.0
2017-Jun-20 19:00N 59°53' E 030°13'0 0.0
2017-Jun-20 18:30N 59°53' E 030°13'0 0.0
2017-Jun-20 18:00N 59°53' E 030°13'0 0.0
2017-Jun-20 17:30N 59°53' E 030°13'0 0.0
2017-Jun-20 17:00N 59°53' E 030°13'0 0.0
2017-Jun-20 16:30N 59°53' E 030°13'0 0.0
2017-Jun-20 16:00N 59°53' E 030°13'0 0.0
2017-Jun-20 15:30N 59°53' E 030°13'0 0.0
2017-Jun-20 15:00N 59°53' E 030°13'0 0.0
2017-Jun-20 14:30N 59°53' E 030°13'0 0.0
2017-Jun-20 13:30N 59°53' E 030°13'0 0.0
2017-Jun-20 13:00N 59°53' E 030°13'0 0.2
2017-Jun-20 12:30N 59°53' E 030°13'0 0.0
2017-Jun-20 12:00N 59°53' E 030°13'0 0.0
2017-Jun-20 11:30N 59°53' E 030°13'0 0.0
2017-Jun-20 11:00N 59°53' E 030°13'0 0.0
2017-Jun-20 10:30N 59°53' E 030°13'0 0.0
2017-Jun-20 10:00N 59°53' E 030°13'0 0.0
2017-Jun-20 09:30N 59°53' E 030°13'0 0.0
2017-Jun-20 09:00N 59°53' E 030°13'0 0.0
2017-Jun-20 08:30N 59°53' E 030°13'0 0.0
2017-Jun-20 08:00N 59°53' E 030°13'2 0.7
2017-Jun-20 05:31N 59°53' E 030°10'0 7.2
2017-Jun-20 05:29N 59°53' E 030°10'4 9.2
2017-Jun-20 05:00N 59°55' E 030°02'8 6.1
2017-Jun-20 03:45N 59°56' E 029°46'0 0.0
2017-Jun-20 03:30N 59°56' E 029°46'0 0.0
2017-Jun-20 02:52N 59°56' E 029°46'0 0.0
2017-Jun-20 02:30N 59°56' E 029°46'0 0.0
2017-Jun-20 02:00N 59°56' E 029°46'0 0.0
2017-Jun-20 01:30N 59°56' E 029°46'0 0.0
2017-Jun-20 00:33N 59°56' E 029°46'0 0.1
2017-Jun-20 00:27N 59°56' E 029°46'7 1.5
2017-Jun-19 19:37N 59°55' E 030°01'211.7
2017-Jun-19 19:27N 59°54' E 030°04'5 7.0
2017-Jun-19 18:46N 59°53' E 030°13'0 0.2
2017-Jun-19 18:24N 59°53' E 030°13'0 0.1
2017-Jun-19 18:00N 59°53' E 030°13'0 0.1
2017-Jun-19 17:30N 59°53' E 030°13'0 0.0
2017-Jun-19 17:00N 59°53' E 030°13'0 0.0
2017-Jun-19 16:30N 59°53' E 030°13'0 0.0
2017-Jun-19 16:00N 59°53' E 030°13'0 0.0
2017-Jun-19 15:30N 59°53' E 030°13'0 0.0
2017-Jun-19 14:52N 59°53' E 030°13'0 0.0
2017-Jun-19 14:30N 59°53' E 030°13'0 0.0
2017-Jun-19 13:27N 59°53' E 030°13'0 0.0
2017-Jun-19 12:26N 59°53' E 030°13'0 0.0
2017-Jun-19 12:00N 59°53' E 030°13'0 0.0
2017-Jun-19 11:18N 59°53' E 030°13'0 0.0
2017-Jun-19 11:00N 59°53' E 030°13'0 0.0
2017-Jun-19 10:12N 59°53' E 030°13'0 0.0
2017-Jun-19 10:00N 59°53' E 030°13'0 0.0
2017-Jun-19 09:30N 59°53' E 030°13'0 0.0
2017-Jun-19 09:00N 59°53' E 030°13'0 0.0
2017-Jun-19 08:09N 59°53' E 030°13'2 1.2
2017-Jun-19 06:40N 59°53' E 030°10'1 8.1
2017-Jun-19 06:30N 59°54' E 030°07'1311.2
2017-Jun-19 05:22N 59°59' E 029°44'1211.7
2017-Jun-19 04:19N 60°02' E 029°20'411.3
2017-Jun-19 04:00N 60°02' E 029°13'4 8.3
2017-Jun-19 03:30N 60°01' E 029°05'4 7.9
2017-Jun-19 03:00N 59°59' E 028°58'4 7.6
2017-Jun-19 02:30N 59°58' E 028°51'4 7.6
2017-Jun-19 02:00N 59°55' E 028°45'611.8
2017-Jun-19 01:30N 59°53' E 028°34'511.0
2017-Jun-19 01:00N 59°49' E 028°26'510.7
2017-Jun-19 00:30N 59°44' E 028°25'3 5.7
2017-Jun-19 00:00N 59°41' E 028°25'0 0.0
2017-Jun-18 23:30N 59°41' E 028°25'0 0.0
2017-Jun-18 23:00N 59°41' E 028°25'0 0.0
2017-Jun-18 22:15N 59°41' E 028°25'0 0.0
2017-Jun-18 22:00N 59°41' E 028°25'0 0.0
2017-Jun-18 21:21N 59°41' E 028°25'0 0.0
2017-Jun-18 21:00N 59°41' E 028°25'0 0.0
2017-Jun-18 20:30N 59°41' E 028°25'0 0.0
2017-Jun-18 19:51N 59°41' E 028°25'0 0.0
2017-Jun-18 19:06N 59°41' E 028°25'0 0.0
2017-Jun-18 18:51N 59°41' E 028°25'0 0.0
2017-Jun-18 18:30N 59°41' E 028°25'0 0.3
2017-Jun-18 18:00N 59°41' E 028°25'4 8.0
2017-Jun-18 17:30N 59°45' E 028°24'2 3.4
2017-Jun-18 17:01N 59°47' E 028°24'0 0.0
2017-Jun-18 16:26N 59°47' E 028°24'0 0.0
2017-Jun-18 15:53N 59°47' E 028°24'0 0.0
2017-Jun-18 15:26N 59°47' E 028°24'0 0.0
2017-Jun-18 14:59N 59°47' E 028°24'0 0.1
2017-Jun-18 13:59N 59°47' E 028°24'0 0.0
2017-Jun-18 13:29N 59°47' E 028°24'0 0.1
2017-Jun-18 12:59N 59°47' E 028°24'0 0.0
2017-Jun-18 12:29N 59°47' E 028°24'0 0.1
2017-Jun-18 11:59N 59°47' E 028°24'0 0.1
2017-Jun-18 11:17N 59°47' E 028°24'0 0.1
2017-Jun-18 11:01N 59°47' E 028°24'0 0.8
2017-Jun-18 10:31N 59°46' E 028°25'3 5.2
2017-Jun-18 10:01N 59°44' E 028°23'2 4.7
2017-Jun-18 09:30N 59°42' E 028°22'0 0.0
2017-Jun-18 09:00N 59°42' E 028°22'0 0.0
2017-Jun-18 08:30N 59°42' E 028°22'0 0.0
2017-Jun-18 08:00N 59°42' E 028°22'0 0.0
2017-Jun-18 07:27N 59°42' E 028°22'0 0.0
2017-Jun-18 07:00N 59°42' E 028°22'0 0.0
2017-Jun-18 06:30N 59°42' E 028°22'0 0.0
2017-Jun-18 06:00N 59°42' E 028°22'0 0.0
2017-Jun-18 05:30N 59°42' E 028°22'0 0.0
2017-Jun-18 05:00N 59°42' E 028°22'0 0.0
2017-Jun-18 04:30N 59°42' E 028°22'0 0.0
2017-Jun-18 04:00N 59°42' E 028°22'0 0.0
2017-Jun-18 03:27N 59°42' E 028°22'0 0.0
2017-Jun-18 02:54N 59°42' E 028°22'0 0.0
2017-Jun-18 02:30N 59°42' E 028°22'0 0.0
2017-Jun-18 02:00N 59°42' E 028°22'0 0.0
2017-Jun-18 01:30N 59°42' E 028°22'0 0.0
2017-Jun-18 01:00N 59°42' E 028°22'0 0.0
2017-Jun-18 00:30N 59°42' E 028°22'0 0.0
2017-Jun-18 00:00N 59°42' E 028°22'0 0.0
2017-Jun-17 23:30N 59°42' E 028°22'0 0.0
2017-Jun-17 23:00N 59°42' E 028°22'0 0.0
2017-Jun-17 22:30N 59°42' E 028°22'0 0.0
2017-Jun-17 22:00N 59°42' E 028°22'0 0.0
2017-Jun-17 21:30N 59°42' E 028°22'0 0.1
2017-Jun-17 21:00N 59°42' E 028°22'0 0.0
2017-Jun-17 20:30N 59°42' E 028°22'0 0.0
2017-Jun-17 20:00N 59°42' E 028°22'0 0.0
2017-Jun-17 19:30N 59°42' E 028°22'0 0.1
2017-Jun-17 19:00N 59°42' E 028°21'0 0.1
2017-Jun-17 18:30N 59°42' E 028°21'0 0.0
2017-Jun-17 18:00N 59°42' E 028°21'0 0.0
2017-Jun-17 17:30N 59°42' E 028°21'0 0.0
2017-Jun-17 17:00N 59°42' E 028°21'0 0.0
2017-Jun-17 16:30N 59°42' E 028°22'0 0.0
2017-Jun-17 16:00N 59°42' E 028°22'0 0.1
2017-Jun-17 15:30N 59°42' E 028°22'0 0.0
2017-Jun-17 14:57N 59°42' E 028°22'0 0.0
2017-Jun-17 14:30N 59°42' E 028°22'0 0.0
2017-Jun-17 13:27N 59°42' E 028°22'0 0.0
2017-Jun-17 12:54N 59°42' E 028°22'0 0.0
2017-Jun-17 12:30N 59°42' E 028°22'0 0.0
2017-Jun-17 11:57N 59°42' E 028°22'0 0.0
2017-Jun-17 11:27N 59°42' E 028°22'0 0.0
2017-Jun-17 11:00N 59°42' E 028°21'0 0.0
2017-Jun-17 10:30N 59°42' E 028°21'0 0.0
2017-Jun-17 10:00N 59°42' E 028°22'0 0.0
2017-Jun-17 09:27N 59°42' E 028°22'0 0.0
2017-Jun-17 09:00N 59°42' E 028°22'0 0.0
2017-Jun-17 08:30N 59°42' E 028°22'0 0.0
2017-Jun-17 07:57N 59°42' E 028°21'0 0.0
2017-Jun-17 07:30N 59°42' E 028°21'0 0.0
2017-Jun-17 07:00N 59°42' E 028°21'0 0.0
2017-Jun-17 06:30N 59°42' E 028°21'0 0.0
2017-Jun-17 06:00N 59°42' E 028°22'0 0.0
2017-Jun-17 05:30N 59°42' E 028°22'0 0.0
2017-Jun-17 05:00N 59°42' E 028°22'0 0.0
2017-Jun-17 04:30N 59°42' E 028°22'0 0.0
2017-Jun-17 04:00N 59°42' E 028°22'0 0.0
2017-Jun-17 03:30N 59°42' E 028°21'0 0.0
2017-Jun-17 03:00N 59°42' E 028°21'0 0.0
2017-Jun-17 02:30N 59°42' E 028°21'0 0.0
2017-Jun-17 02:00N 59°42' E 028°21'0 0.0
2017-Jun-17 01:30N 59°42' E 028°21'0 0.0
2017-Jun-17 01:00N 59°42' E 028°21'0 0.1
2017-Jun-17 00:24N 59°42' E 028°22'0 0.0
2017-Jun-17 00:00N 59°42' E 028°22'0 0.0
2017-Jun-16 23:30N 59°42' E 028°21'0 0.0
2017-Jun-16 22:51N 59°42' E 028°21'0 0.0
2017-Jun-16 22:21N 59°42' E 028°21'0 0.0
2017-Jun-16 21:48N 59°42' E 028°21'0 0.0
2017-Jun-16 21:24N 59°42' E 028°21'0 0.0
2017-Jun-16 20:54N 59°42' E 028°21'0 0.0
2017-Jun-16 20:24N 59°42' E 028°21'0 0.0
2017-Jun-16 20:00N 59°42' E 028°21'0 0.0
2017-Jun-16 19:30N 59°42' E 028°21'0 0.0
2017-Jun-16 18:51N 59°42' E 028°21'0 0.0
2017-Jun-16 18:27N 59°42' E 028°21'0 0.0
2017-Jun-16 18:00N 59°42' E 028°21'0 0.0
2017-Jun-16 17:30N 59°42' E 028°21'0 0.0
2017-Jun-16 17:00N 59°42' E 028°21'0 0.0
2017-Jun-16 16:30N 59°42' E 028°21'0 0.0
2017-Jun-16 16:00N 59°42' E 028°21'0 0.0
2017-Jun-16 15:30N 59°42' E 028°21'0 0.0
2017-Jun-16 15:00N 59°42' E 028°21'0 0.0
2017-Jun-16 14:30N 59°42' E 028°21'0 0.0
2017-Jun-16 13:30N 59°42' E 028°21'0 0.0
2017-Jun-16 13:00N 59°42' E 028°21'0 0.0
2017-Jun-16 12:30N 59°42' E 028°21'0 0.0
2017-Jun-16 12:00N 59°42' E 028°21'0 0.0
2017-Jun-16 11:31N 59°42' E 028°21'1 2.8
2017-Jun-16 11:00N 59°43' E 028°23'510.1
2017-Jun-16 10:31N 59°48' E 028°25'611.5
2017-Jun-16 10:01N 59°53' E 028°30'4 6.9
2017-Jun-16 09:29N 59°55' E 028°36'0 0.0
2017-Jun-16 08:56N 59°55' E 028°36'0 0.0
2017-Jun-16 08:29N 59°55' E 028°36'0 0.0
2017-Jun-16 07:59N 59°55' E 028°36'0 0.0
2017-Jun-16 07:29N 59°55' E 028°36'0 0.0
2017-Jun-16 06:59N 59°55' E 028°36'0 0.1
2017-Jun-16 06:29N 59°55' E 028°36'0 0.0
2017-Jun-16 05:59N 59°55' E 028°36'0 0.0
2017-Jun-16 05:29N 59°55' E 028°36'0 0.0
2017-Jun-16 04:59N 59°55' E 028°36'0 0.0
2017-Jun-16 04:29N 59°55' E 028°36'0 0.0
2017-Jun-16 03:59N 59°55' E 028°36'0 0.0
2017-Jun-16 03:29N 59°55' E 028°36'0 0.0
2017-Jun-16 02:59N 59°55' E 028°36'0 0.1
2017-Jun-16 02:29N 59°55' E 028°36'0 0.0
2017-Jun-16 01:59N 59°55' E 028°36'0 0.0
2017-Jun-16 01:29N 59°55' E 028°36'0 0.0
2017-Jun-16 00:59N 59°55' E 028°36'0 0.0
2017-Jun-16 00:29N 59°55' E 028°36'0 0.0
2017-Jun-15 23:59N 59°55' E 028°36'0 0.0
2017-Jun-15 23:29N 59°55' E 028°36'0 0.0
2017-Jun-15 22:59N 59°55' E 028°36'0 0.1
2017-Jun-15 22:29N 59°55' E 028°36'0 0.0
2017-Jun-15 21:59N 59°55' E 028°36'3 6.3
2017-Jun-15 21:31N 59°55' E 028°42'611.4
2017-Jun-15 21:01N 59°58' E 028°52'611.7
2017-Jun-15 20:31N 60°00' E 029°03'611.6
2017-Jun-15 20:00N 60°02' E 029°14'611.4
2017-Jun-15 19:30N 60°02' E 029°25'510.7
2017-Jun-15 19:00N 60°01' E 029°36'511.0
2017-Jun-15 18:30N 59°59' E 029°46'3 5.6
2017-Jun-15 17:59N 59°56' E 029°46'0 0.0
2017-Jun-15 17:30N 59°56' E 029°46'0 0.0
2017-Jun-15 17:00N 59°56' E 029°46'0 0.0
2017-Jun-15 16:30N 59°56' E 029°46'0 0.0
2017-Jun-15 16:01N 59°56' E 029°46'0 0.0
2017-Jun-15 15:30N 59°56' E 029°46'0 0.0
2017-Jun-15 15:00N 59°56' E 029°46'0 0.0
2017-Jun-15 14:30N 59°56' E 029°46'0 0.0
2017-Jun-15 13:30N 59°56' E 029°46'0 0.0
2017-Jun-15 13:00N 59°56' E 029°46'0 0.0
2017-Jun-15 12:27N 59°56' E 029°46'0 0.0
2017-Jun-15 12:00N 59°56' E 029°46'0 0.1
2017-Jun-15 09:40N 59°56' E 029°47'1 8.5
2017-Jun-15 09:31N 59°57' E 029°47'4 8.2
2017-Jun-15 09:00N 59°56' E 029°55'611.2
2017-Jun-15 08:30N 59°54' E 030°06'3 6.7
2017-Jun-15 08:01N 59°53' E 030°12'1 1.7
2017-Jun-15 07:31N 59°53' E 030°13'0 0.0
2017-Jun-15 07:01N 59°53' E 030°13'0 0.0
2017-Jun-15 06:30N 59°53' E 030°13'0 0.0
2017-Jun-15 06:00N 59°53' E 030°13'0 0.0
2017-Jun-15 05:31N 59°53' E 030°13'0 0.0
2017-Jun-15 05:01N 59°53' E 030°13'0 0.0
2017-Jun-15 04:31N 59°53' E 030°13'0 0.2
2017-Jun-15 04:00N 59°53' E 030°14'0 0.0
2017-Jun-15 03:30N 59°53' E 030°14'0 0.0
2017-Jun-15 03:01N 59°53' E 030°14'0 0.0
2017-Jun-15 02:31N 59°53' E 030°14'0 0.0
2017-Jun-15 02:00N 59°53' E 030°14'0 0.0
2017-Jun-15 01:31N 59°53' E 030°14'0 0.0
2017-Jun-15 01:01N 59°53' E 030°14'0 0.0
2017-Jun-15 00:31N 59°53' E 030°14'0 0.0
2017-Jun-15 00:00N 59°53' E 030°14'0 0.0
2017-Jun-14 23:31N 59°53' E 030°14'0 0.0
2017-Jun-14 23:00N 59°53' E 030°14'0 0.9
2017-Jun-14 22:31N 59°53' E 030°13'1 1.7
2017-Jun-14 22:01N 59°53' E 030°11'0 0.2
2017-Jun-14 21:30N 59°53' E 030°11'0 0.0
2017-Jun-14 21:01N 59°53' E 030°11'0 0.0
2017-Jun-14 20:31N 59°53' E 030°11'0 0.0
2017-Jun-14 20:00N 59°53' E 030°11'0 0.0
2017-Jun-14 19:31N 59°53' E 030°11'0 0.0
2017-Jun-14 19:01N 59°53' E 030°11'0 0.0
2017-Jun-14 18:30N 59°53' E 030°11'0 0.0
2017-Jun-14 18:00N 59°53' E 030°11'0 0.0
2017-Jun-14 17:30N 59°53' E 030°11'0 0.0
2017-Jun-14 17:01N 59°53' E 030°11'0 0.0
2017-Jun-14 16:31N 59°53' E 030°11'0 0.0
2017-Jun-14 16:01N 59°53' E 030°11'0 0.0
2017-Jun-14 15:30N 59°53' E 030°11'0 0.0
2017-Jun-14 15:01N 59°53' E 030°11'0 0.0
2017-Jun-14 14:01N 59°53' E 030°11'0 0.0
2017-Jun-14 13:30N 59°53' E 030°11'0 0.0
2017-Jun-14 13:00N 59°53' E 030°11'0 0.0
2017-Jun-14 12:30N 59°53' E 030°11'1 1.8
2017-Jun-14 12:00N 59°53' E 030°13'0 1.0
2017-Jun-14 11:31N 59°53' E 030°13'0 0.0
2017-Jun-14 11:00N 59°53' E 030°13'0 0.0
2017-Jun-14 10:30N 59°53' E 030°13'0 0.0
2017-Jun-14 10:00N 59°53' E 030°13'0 0.0
2017-Jun-14 09:30N 59°53' E 030°13'0 0.0
2017-Jun-14 09:01N 59°53' E 030°13'0 0.0
2017-Jun-14 08:31N 59°53' E 030°13'0 0.0
2017-Jun-14 08:00N 59°53' E 030°13'0 0.0
2017-Jun-14 07:30N 59°53' E 030°13'0 0.0
2017-Jun-14 07:01N 59°53' E 030°13'0 0.1
2017-Jun-14 06:31N 59°53' E 030°13'3 5.3
2017-Jun-14 06:01N 59°54' E 030°08'5 8.9
2017-Jun-14 05:30N 59°55' E 029°60'511.0
2017-Jun-14 05:01N 59°57' E 029°50'2 4.9
2017-Jun-14 04:31N 59°56' E 029°46'0 0.0
2017-Jun-13 05:08N 59°56' E 029°46'0 0.0
2017-Jun-13 05:00N 59°56' E 029°46'0 0.0
2017-Jun-13 04:30N 59°56' E 029°46'0 0.6
2017-Jun-13 03:58N 59°56' E 029°47'3 7.6
2017-Jun-13 03:30N 59°59' E 029°44'811.2
2017-Jun-13 02:50N 60°01' E 029°30'3 8.1
2017-Jun-13 02:24N 60°01' E 029°23'  

Dump ship's entire track history